Time;durP1;ratioP1;P1;durP2;ratioP2;P2;SDS_P1;SDS_P2;PMS_P1;PMS_P2;Temp;Humidity;BMP_temperature;BMP_pressure;BME280_temperature;BME280_humidity;BME280_pressure;Samples;Min_cycle;Max_cycle;Signal;HPM_P1;HPM_P2
2021/05/15 00:01:48;;;;;;;1.83;1.30;;;11.50;79.60;;;;;;5017140;28;20198;-89
2021/05/15 00:04:14;;;;;;;2.60;1.90;;;11.50;80.20;;;;;;5016556;28;20194;-88
2021/05/15 00:06:40;;;;;;;2.20;1.50;;;11.50;80.00;;;;;;5013697;28;20203;-87
2021/05/15 00:09:06;;;;;;;2.13;1.57;;;11.50;79.20;;;;;;5019992;28;20219;-87
2021/05/15 00:11:32;;;;;;;1.70;1.53;;;11.50;79.60;;;;;;5017420;28;20243;-88
2021/05/15 00:13:57;;;;;;;2.67;1.80;;;11.40;79.20;;;;;;5020035;28;20672;-88
2021/05/15 00:16:23;;;;;;;2.00;1.73;;;;;;;;;;5031594;28;20192;-89
2021/05/15 00:18:49;;;;;;;2.10;1.73;;;11.40;79.30;;;;;;5018547;28;20190;-88
2021/05/15 00:21:15;;;;;;;2.73;1.90;;;11.40;79.40;;;;;;5016909;28;20199;-88
2021/05/15 00:23:40;;;;;;;1.60;1.37;;;11.50;79.90;;;;;;5009767;28;20193;-88
2021/05/15 00:26:06;;;;;;;2.27;1.80;;;11.50;79.70;;;;;;5025072;28;20198;-88
2021/05/15 00:28:32;;;;;;;1.93;1.40;;;11.50;79.60;;;;;;5016171;28;20258;-88
2021/05/15 00:30:58;;;;;;;1.70;1.60;;;12.70;81.00;;;;;;5033906;28;20193;-88
2021/05/15 00:33:25;;;;;;;1.93;1.57;;;11.50;79.30;;;;;;5035018;28;20171;-88
2021/05/15 00:35:51;;;;;;;2.87;1.57;;;11.50;79.80;;;;;;5010094;28;20213;-88
2021/05/15 00:38:17;;;;;;;3.07;1.63;;;11.50;79.70;;;;;;5029112;28;20219;-88
2021/05/15 00:40:43;;;;;;;1.77;1.43;;;10.20;78.50;;;;;;5016955;28;20187;-87
2021/05/15 00:43:09;;;;;;;2.47;1.53;;;;;;;;;;5014401;28;20686;-88
2021/05/15 00:45:36;;;;;;;1.90;1.70;;;11.30;80.00;;;;;;5032059;28;20191;-88
2021/05/15 00:48:02;;;;;;;2.30;1.90;;;11.30;80.50;;;;;;5022646;28;20195;-89
2021/05/15 00:50:29;;;;;;;2.00;1.40;;;11.30;80.70;;;;;;5013473;28;20209;-89
2021/05/15 00:52:55;;;;;;;4.90;2.10;;;11.20;80.80;;;;;;5012012;28;20191;-88
2021/05/15 00:55:21;;;;;;;3.47;1.93;;;11.20;81.00;;;;;;5031283;28;20194;-88
2021/05/15 00:57:47;;;;;;;2.20;1.60;;;11.20;81.50;;;;;;5013944;28;20202;-89
2021/05/15 01:00:14;;;;;;;4.03;1.87;;;11.20;81.00;;;;;;5007033;28;20569;-88
2021/05/15 01:02:40;;;;;;;1.83;1.40;;;11.20;81.60;;;;;;5011439;28;20698;-88
2021/05/15 01:05:08;;;;;;;2.00;1.80;;;11.30;81.70;;;;;;5016274;28;20195;-89
2021/05/15 01:07:34;;;;;;;2.47;1.50;;;11.20;82.30;;;;;;5017758;28;20253;-89
2021/05/15 01:10:00;;;;;;;2.17;1.83;;;;;;;;;;5020419;28;20208;-88
2021/05/15 01:12:26;;;;;;;2.43;2.00;;;11.10;82.60;;;;;;5016233;28;20229;-88
2021/05/15 01:14:52;;;;;;;2.67;1.67;;;11.10;83.60;;;;;;5013499;28;20197;-88
2021/05/15 01:17:18;;;;;;;2.60;1.90;;;11.10;84.50;;;;;;5009485;28;20290;-89
2021/05/15 01:19:43;;;;;;;2.37;1.63;;;11.00;85.40;;;;;;5019437;28;20581;-89
2021/05/15 01:22:14;;;;;;;2.70;1.47;;;10.90;84.80;;;;;;5017936;28;20211;-88
2021/05/15 01:24:45;;;;;;;2.53;2.07;;;10.80;85.00;;;;;;5020807;28;20262;-88
2021/05/15 01:27:13;;;;;;;3.07;2.00;;;10.80;85.50;;;;;;5040445;28;20198;-89
2021/05/15 01:29:40;;;;;;;3.43;1.90;;;10.80;85.80;;;;;;5018218;28;20217;-89
2021/05/15 01:32:07;;;;;;;3.93;2.00;;;10.70;85.80;;;;;;5035152;28;20202;-89
2021/05/15 01:34:32;;;;;;;2.37;2.07;;;12.50;87.90;;;;;;5019636;28;20185;-88
2021/05/15 01:36:58;;;;;;;4.40;2.23;;;10.70;85.80;;;;;;5017857;28;20202;-88
2021/05/15 01:39:24;;;;;;;2.27;2.07;;;;;;;;;;5020678;28;20261;-88
2021/05/15 01:41:50;;;;;;;2.33;2.07;;;10.70;86.00;;;;;;5019509;28;20677;-88
2021/05/15 01:44:16;;;;;;;2.00;1.80;;;10.70;86.00;;;;;;5020120;28;20205;-88
2021/05/15 01:46:43;;;;;;;2.03;1.70;;;10.70;86.50;;;;;;5023354;28;20221;-89
2021/05/15 01:49:09;;;;;;;2.80;1.90;;;10.80;87.10;;;;;;5016657;28;20214;-88
2021/05/15 01:51:35;;;;;;;3.23;1.73;;;10.70;86.70;;;;;;5016014;28;20236;-89
2021/05/15 01:54:01;;;;;;;2.33;2.03;;;10.80;85.90;;;;;;5021053;28;20300;-88
2021/05/15 01:56:29;;;;;;;3.13;1.97;;;10.80;86.50;;;;;;5023803;28;20572;-88
2021/05/15 01:58:55;;;;;;;2.50;1.90;;;10.80;86.30;;;;;;5037684;28;20252;-89
2021/05/15 02:01:22;;;;;;;2.20;1.90;;;10.80;86.30;;;;;;5020410;28;20232;-89
2021/05/15 02:03:48;;;;;;;3.90;2.23;;;10.80;85.60;;;;;;5021784;28;20285;-89
2021/05/15 02:06:14;;;;;;;2.93;2.10;;;10.70;86.10;;;;;;5023360;28;20226;-88
2021/05/15 02:08:41;;;;;;;2.33;1.80;;;10.70;86.10;;;;;;5020008;28;20250;-88
2021/05/15 02:11:08;;;;;;;2.47;2.13;;;10.70;86.30;;;;;;5022033;28;20190;-89
2021/05/15 02:13:34;;;;;;;1.90;1.70;;;10.80;86.90;;;;;;5015698;28;20216;-89
2021/05/15 02:16:00;;;;;;;2.17;1.90;;;10.70;86.80;;;;;;5014397;28;20202;-88
2021/05/15 02:18:27;;;;;;;3.33;2.30;;;;;;;;;;5038410;28;20197;-88
2021/05/15 02:20:53;;;;;;;2.50;1.77;;;10.70;85.50;;;;;;5018266;28;20205;-87
2021/05/15 02:23:20;;;;;;;2.37;1.83;;;10.80;85.30;;;;;;5015517;28;20195;-88
2021/05/15 02:25:47;;;;;;;2.17;1.90;;;10.80;83.20;;;;;;5012826;28;20662;-89
2021/05/15 02:28:15;;;;;;;4.43;1.90;;;10.80;80.60;;;;;;5016881;28;20207;-89
2021/05/15 02:30:40;;;;;;;1.60;1.50;;;10.80;81.20;;;;;;5012305;28;20189;-87
2021/05/15 02:33:06;;;;;;;2.10;1.80;;;10.90;80.70;;;;;;5026031;28;20186;-87
2021/05/15 02:35:32;;;;;;;2.53;1.60;;;;;;;;;;5014753;28;20194;-88
2021/05/15 02:37:58;;;;;;;3.67;1.83;;;;;;;;;;5020436;28;20607;-89
2021/05/15 02:40:24;;;;;;;4.13;1.77;;;;;;;;;;5019291;28;20242;-90
2021/05/15 02:42:51;;;;;;;1.80;1.60;;;11.00;79.70;;;;;;5030374;28;20262;-88
2021/05/15 02:45:22;;;;;;;2.37;1.60;;;11.00;79.90;;;;;;5012110;28;20198;-87
2021/05/15 02:47:49;;;;;;;1.57;1.47;;;11.00;80.40;;;;;;5021029;28;20213;-88
2021/05/15 02:50:17;;;;;;;2.53;1.70;;;11.00;80.50;;;;;;5015994;28;20718;-88
2021/05/15 02:52:43;;;;;;;2.83;1.47;;;11.00;80.00;;;;;;5030745;28;20202;-88
2021/05/15 02:55:19;;;;;;;6.30;2.43;;;11.00;79.60;;;;;;5019382;28;20249;-87
2021/05/15 02:57:45;;;;;;;4.90;1.87;;;;;;;;;;5017856;28;20184;-88
2021/05/15 03:00:18;;;;;;;1.70;1.60;;;10.90;80.70;;;;;;5018744;28;20210;-87
2021/05/15 03:02:44;;;;;;;2.23;1.40;;;;;;;;;;5021377;28;20730;-88
2021/05/15 03:05:12;;;;;;;2.80;2.10;;;10.90;80.70;;;;;;5036236;28;20196;-88
2021/05/15 03:07:37;;;;;;;1.70;1.60;;;10.80;80.60;;;;;;5019037;28;20222;-87
2021/05/15 03:10:05;;;;;;;2.93;1.97;;;10.80;81.20;;;;;;5011043;28;20207;-87
2021/05/15 03:12:31;;;;;;;2.77;1.70;;;10.80;81.20;;;;;;5016207;28;20242;-88
2021/05/15 03:14:57;;;;;;;1.63;1.53;;;10.80;80.60;;;;;;5018648;28;20194;-88
2021/05/15 03:17:22;;;;;;;2.63;2.27;;;10.80;81.20;;;;;;5034128;28;20619;-87
2021/05/15 03:19:48;;;;;;;3.30;1.87;;;10.80;80.60;;;;;;5020710;28;20254;-87
2021/05/15 03:22:14;;;;;;;1.73;1.37;;;10.80;80.60;;;;;;5012954;28;20260;-88
2021/05/15 03:24:40;;;;;;;2.07;1.83;;;;;;;;;;5018033;28;20293;-88
2021/05/15 03:27:06;;;;;;;1.70;1.60;;;;;;;;;;5010069;28;20202;-88
2021/05/15 03:29:32;;;;;;;2.60;1.50;;;10.90;80.70;;;;;;5019446;28;20352;-89
2021/05/15 03:31:59;;;;;;;2.00;1.43;;;10.90;81.90;;;;;;5032882;28;20189;-88
2021/05/15 03:34:24;;;;;;;2.17;1.83;;;10.90;80.70;;;;;;5016756;28;20194;-88
2021/05/15 03:36:50;;;;;;;2.67;1.60;;;10.90;81.30;;;;;;5014362;28;20202;-88
2021/05/15 03:39:18;;;;;;;1.50;1.40;;;10.90;80.70;;;;;;5019850;28;20674;-88
2021/05/15 03:41:47;;;;;;;1.83;1.67;;;10.90;81.30;;;;;;5033909;28;20198;-88
2021/05/15 03:44:13;;;;;;;2.37;1.67;;;10.90;81.30;;;;;;5018667;28;20311;-88
2021/05/15 03:46:39;;;;;;;2.03;1.40;;;11.00;81.30;;;;;;5020410;28;20198;-89
2021/05/15 03:49:05;;;;;;;2.13;1.63;;;11.00;80.70;;;;;;5015046;28;20206;-89
2021/05/15 03:51:31;;;;;;;2.23;1.53;;;10.90;80.70;;;;;;5017949;28;20202;-89
2021/05/15 03:53:57;;;;;;;4.23;2.27;;;;;;;;;;5015508;28;20187;-88
2021/05/15 03:56:23;;;;;;;2.90;2.00;;;11.00;80.30;;;;;;5030014;28;20182;-87
2021/05/15 03:58:49;;;;;;;2.97;1.67;;;11.00;80.00;;;;;;5023320;28;20286;-90
2021/05/15 04:01:15;;;;;;;2.60;1.97;;;;;;;;;;5012667;28;20206;-89
2021/05/15 04:03:41;;;;;;;2.20;1.93;;;11.10;79.00;;;;;;5018374;28;20570;-89
2021/05/15 04:06:07;;;;;;;2.70;2.00;;;11.10;79.10;;;;;;5037154;28;20206;-89
2021/05/15 04:08:32;;;;;;;2.17;1.60;;;11.10;79.30;;;;;;5018773;28;20222;-90
2021/05/15 04:10:58;;;;;;;2.13;1.83;;;11.00;79.20;;;;;;5019847;28;20670;-90
2021/05/15 04:16:23;;;;;;;2.20;2.00;;;;;;;;;;5035035;28;20198;-89
2021/05/15 04:18:52;;;;;;;1.77;1.67;;;11.10;79.00;;;;;;5019134;28;20190;-89
2021/05/15 04:21:18;;;;;;;3.13;2.13;;;;;;;;;;5012463;28;20199;-89
2021/05/15 04:23:50;;;;;;;2.50;2.13;;;;;;;;;;5013295;28;20258;-90
2021/05/15 04:26:17;;;;;;;3.03;1.70;;;;;;;;;;5020136;28;20327;-90
2021/05/15 04:28:43;;;;;;;6.03;2.37;;;;;;;;;;5017843;28;20363;-89
2021/05/15 04:31:08;;;;;;;6.00;2.60;;;11.00;79.70;;;;;;5018472;28;20282;-90
2021/05/15 04:33:36;;;;;;;1.97;1.77;;;11.10;79.30;;;;;;5018475;28;20699;-90
2021/05/15 04:36:02;;;;;;;2.60;2.07;;;;;;;;;;5019453;28;20190;-90
2021/05/15 04:38:29;;;;;;;3.20;2.40;;;;;;;;;;5016713;28;20202;-90
2021/05/15 04:40:55;;;;;;;2.53;2.00;;;11.10;79.30;;;;;;5011593;28;20244;-90
2021/05/15 04:43:21;;;;;;;2.53;2.33;;;;;;;;;;5014355;28;20188;-90
2021/05/15 04:45:47;;;;;;;2.33;2.13;;;11.00;78.90;;;;;;5005056;28;20196;-90
2021/05/15 04:48:12;;;;;;;2.47;2.27;;;11.10;79.90;;;;;;5014554;28;20546;-90
2021/05/15 04:50:38;;;;;;;3.00;2.13;;;11.10;79.20;;;;;;5011295;28;20304;-90
2021/05/15 04:53:05;;;;;;;2.37;2.00;;;11.00;78.80;;;;;;5010512;28;20189;-86
2021/05/15 04:55:31;;;;;;;3.30;2.50;;;11.10;79.80;;;;;;5001565;28;20559;-86
2021/05/15 04:58:00;;;;;;;5.37;2.67;;;11.20;78.70;;;;;;5014550;28;20197;-84
2021/05/15 05:00:27;;;;;;;2.57;2.07;;;11.20;78.80;;;;;;5014156;28;20251;-84
2021/05/15 05:02:52;;;;;;;2.47;2.10;;;11.20;79.10;;;;;;5012792;28;20199;-87
2021/05/15 05:05:18;;;;;;;3.73;2.17;;;11.20;79.50;;;;;;5014441;28;20308;-87
2021/05/15 05:07:45;;;;;;;2.43;2.13;;;11.20;79.50;;;;;;5013775;28;20220;-87
2021/05/15 05:10:11;;;;;;;2.67;2.10;;;11.20;78.40;;;;;;5020894;28;20211;-83
2021/05/15 05:12:36;;;;;;;2.70;2.30;;;11.20;79.00;;;;;;5019611;28;20194;-82
2021/05/15 05:15:04;;;;;;;3.73;2.90;;;11.30;79.40;;;;;;5022686;28;20183;-83
2021/05/15 05:17:29;;;;;;;2.87;2.20;;;11.40;77.70;;;;;;5018032;28;20184;-82
2021/05/15 05:19:55;;;;;;;2.20;1.90;;;11.50;77.10;;;;;;5020022;28;20214;-82
2021/05/15 05:22:21;;;;;;;2.87;2.03;;;11.50;76.40;;;;;;5019900;28;20194;-83
2021/05/15 05:24:46;;;;;;;2.27;2.07;;;11.70;76.80;;;;;;5023349;28;20214;-84
2021/05/15 05:27:19;;;;;;;2.87;2.13;;;11.60;76.90;;;;;;5023806;28;20339;-82
2021/05/15 05:29:45;;;;;;;2.03;1.70;;;11.70;76.70;;;;;;5021724;28;20211;-83
2021/05/15 05:32:11;;;;;;;2.33;1.67;;;11.80;74.90;;;;;;5017723;28;20192;-82
2021/05/15 05:34:37;;;;;;;2.87;2.00;;;11.80;75.50;;;;;;5013061;28;20183;-82
2021/05/15 05:37:04;;;;;;;4.43;2.13;;;11.80;74.60;;;;;;5023438;28;20187;-82
2021/05/15 05:39:29;;;;;;;3.30;1.93;;;11.90;73.90;;;;;;5022067;28;20194;-83
2021/05/15 05:41:55;;;;;;;2.97;1.90;;;12.10;74.00;;;;;;5016562;28;20195;-82
2021/05/15 05:44:21;;;;;;;4.13;1.80;;;12.40;72.40;;;;;;5020878;28;20203;-83
2021/05/15 05:46:47;;;;;;;2.73;2.17;;;12.40;71.50;;;;;;5020310;28;20274;-82
2021/05/15 05:49:12;;;;;;;2.00;1.90;;;12.80;70.80;;;;;;5022554;28;20234;-83
2021/05/15 05:51:38;;;;;;;3.77;2.13;;;12.50;70.00;;;;;;5020748;28;20194;-83
2021/05/15 05:54:04;;;;;;;2.83;2.17;;;12.60;69.90;;;;;;5020244;28;20191;-83
2021/05/15 05:56:30;;;;;;;4.07;2.10;;;12.60;68.00;;;;;;5018405;28;20209;-83
2021/05/15 05:58:56;;;;;;;2.80;2.20;;;;;;;;;;5024596;28;20226;-82
2021/05/15 06:01:22;;;;;;;3.13;2.17;;;12.50;68.70;;;;;;5019983;28;20184;-83
2021/05/15 06:03:48;;;;;;;3.87;2.63;;;12.50;68.40;;;;;;5017046;28;20190;-83
2021/05/15 06:06:13;;;;;;;2.17;1.93;;;12.60;69.30;;;;;;5022731;28;20195;-84
2021/05/15 06:08:39;;;;;;;2.67;1.87;;;12.60;68.70;;;;;;5019325;28;20234;-84
2021/05/15 06:11:06;;;;;;;2.30;2.10;;;;;;;;;;5022636;28;20187;-84
2021/05/15 06:13:34;;;;;;;2.77;2.30;;;12.70;68.30;;;;;;5018544;28;20191;-84
2021/05/15 06:16:00;;;;;;;3.27;2.50;;;12.80;67.10;;;;;;5028148;28;20183;-85
2021/05/15 06:18:25;;;;;;;3.90;2.50;;;12.80;67.10;;;;;;5019813;28;20186;-83
2021/05/15 06:20:51;;;;;;;4.40;3.03;;;12.90;66.20;;;;;;5038017;28;20203;-86
2021/05/15 06:23:17;;;;;;;3.20;2.60;;;13.10;66.80;;;;;;5010701;28;20184;-85
2021/05/15 06:25:43;;;;;;;2.43;2.00;;;12.90;66.30;;;;;;5023640;28;20212;-84
2021/05/15 06:28:08;;;;;;;3.60;2.43;;;13.60;66.90;;;;;;5041109;28;20195;-84
2021/05/15 06:30:34;;;;;;;2.50;2.20;;;12.90;66.80;;;;;;5020227;28;20307;-84
2021/05/15 06:33:00;;;;;;;2.50;2.30;;;13.20;67.40;;;;;;5017297;28;20199;-83
2021/05/15 06:35:25;;;;;;;4.27;2.63;;;13.50;66.10;;;;;;5019367;28;20188;-84
2021/05/15 06:37:51;;;;;;;3.37;2.40;;;13.80;63.40;;;;;;5023116;28;20258;-83
2021/05/15 06:40:17;;;;;;;3.60;2.43;;;13.50;61.40;;;;;;5024333;28;20264;-85
2021/05/15 06:42:43;;;;;;;3.00;2.03;;;;;;;;;;5024756;28;20194;-83
2021/05/15 06:45:10;;;;;;;2.33;2.10;;;14.00;60.60;;;;;;5017612;28;20184;-85
2021/05/15 06:47:36;;;;;;;2.63;2.40;;;;;;;;;;5027172;28;20184;-86
2021/05/15 06:50:06;;;;;;;3.13;2.50;;;14.30;58.30;;;;;;5013530;28;20351;-86
2021/05/15 06:52:32;;;;;;;3.00;2.33;;;14.30;58.30;;;;;;5038291;28;20242;-87
2021/05/15 06:54:58;;;;;;;6.20;2.60;;;14.20;57.70;;;;;;5017660;28;20195;-86
2021/05/15 06:57:24;;;;;;;4.17;2.20;;;14.10;58.10;;;;;;5019479;28;20206;-88
2021/05/15 06:59:50;;;;;;;4.50;2.67;;;13.90;57.90;;;;;;5025848;28;20230;-87
2021/05/15 07:02:17;;;;;;;2.33;2.07;;;14.00;58.00;;;;;;5016774;28;20202;-86
2021/05/15 07:04:43;;;;;;;3.27;2.57;;;14.20;57.10;;;;;;5020778;28;20210;-86
2021/05/15 07:07:09;;;;;;;4.07;2.67;;;13.90;56.20;;;;;;5020385;28;20590;-87
2021/05/15 07:09:35;;;;;;;3.37;2.43;;;14.00;56.20;;;;;;5021687;28;20211;-87
2021/05/15 07:12:01;;;;;;;2.53;2.07;;;14.20;56.20;;;;;;5014753;28;20211;-86
2021/05/15 07:14:27;;;;;;;6.50;2.50;;;14.30;55.80;;;;;;5022358;28;20208;-85
2021/05/15 07:16:52;;;;;;;4.70;2.67;;;14.60;55.50;;;;;;5017972;28;20698;-86
2021/05/15 07:19:18;;;;;;;4.87;2.80;;;;;;;;;;5037752;28;20183;-84
2021/05/15 07:21:47;;;;;;;2.80;2.20;;;;;;;;;;5020266;28;20207;-87
2021/05/15 07:24:13;;;;;;;3.40;2.50;;;;;;;;;;5017827;28;20187;-86
2021/05/15 07:26:39;;;;;;;5.47;3.07;;;;;;;;;;5024348;28;20201;-86
2021/05/15 07:29:07;;;;;;;8.60;3.77;;;;;;;;;;5020312;28;20238;-87
2021/05/15 07:31:33;;;;;;;5.00;2.90;;;;;;;;;;5036897;28;20184;-86
2021/05/15 07:34:01;;;;;;;4.00;2.60;;;;;;;;;;5021238;28;20190;-85
2021/05/15 07:36:27;;;;;;;5.67;3.00;;;;;;;;;;5015787;28;20204;-86
2021/05/15 07:38:53;;;;;;;4.43;3.37;;;;;;;;;;5017626;28;20197;-86
2021/05/15 07:41:21;;;;;;;7.00;3.70;;;14.30;56.40;;;;;;5013162;28;20218;-85
2021/05/15 07:43:49;;;;;;;5.30;3.30;;;14.20;57.00;;;;;;5017872;28;20193;-85
2021/05/15 07:46:15;;;;;;;5.43;3.30;;;13.90;57.90;;;;;;5004866;28;20292;-86
2021/05/15 07:48:43;;;;;;;5.23;2.90;;;;;;;;;;5019377;28;20662;-86
2021/05/15 07:51:11;;;;;;;4.07;2.50;;;14.20;58.20;;;;;;5019758;28;20349;-85
2021/05/15 07:53:37;;;;;;;4.40;2.43;;;14.70;53.60;;;;;;5019761;28;20188;-85
2021/05/15 07:56:03;;;;;;;3.77;2.60;;;15.10;53.50;;;;;;5002800;28;20191;-85
2021/05/15 07:58:29;;;;;;;5.43;2.73;;;15.40;50.50;;;;;;5035593;28;20187;-85
2021/05/15 08:00:55;;;;;;;2.90;2.53;;;;;;;;;;5021640;28;20197;-84
2021/05/15 08:03:21;;;;;;;3.70;2.77;;;;;;;;;;5019145;28;20183;-81
2021/05/15 08:05:47;;;;;;;3.53;2.30;;;;;;;;;;5014154;28;20248;-82
2021/05/15 08:08:13;;;;;;;4.03;3.13;;;15.00;50.60;;;;;;5020684;28;20294;-81
2021/05/15 08:10:39;;;;;;;2.73;2.33;;;;;;;;;;5018251;28;20179;-81
2021/05/15 08:13:05;;;;;;;3.63;1.73;;;;;;;;;;5016019;28;20667;-85
2021/05/15 08:15:32;;;;;;;4.10;2.23;;;;;;;;;;5017597;28;20189;-85
2021/05/15 08:17:58;;;;;;;4.23;2.20;;;;;;;;;;5004560;28;20194;-84
2021/05/15 08:20:25;;;;;;;4.17;2.33;;;14.90;50.10;;;;;;5024024;28;20206;-84
2021/05/15 08:22:50;;;;;;;2.40;2.13;;;14.90;50.10;;;;;;5021438;28;20199;-83
2021/05/15 08:25:17;;;;;;;4.13;2.70;;;14.80;51.20;;;;;;5017265;28;20274;-85
2021/05/15 08:27:52;;;;;;;4.37;2.83;;;14.80;50.70;;;;;;5025332;28;20198;-86
2021/05/15 08:30:19;;;;;;;4.47;2.57;;;14.80;50.90;;;;;;5036302;28;21579;-82
2021/05/15 08:32:48;;;;;;;3.33;2.47;;;14.70;52.60;;;;;;5015708;28;20202;-82
2021/05/15 08:35:14;;;;;;;2.53;2.33;;;;;;;;;;5018498;28;20191;-82
2021/05/15 08:37:41;;;;;;;2.57;2.37;;;15.10;50.70;;;;;;5021900;28;20199;-83
2021/05/15 08:40:08;;;;;;;5.50;2.93;;;15.40;50.60;;;;;;5020242;28;20196;-86
2021/05/15 08:42:39;;;;;;;4.70;2.63;;;15.80;49.50;;;;;;5020855;28;20198;-87
2021/05/15 08:45:06;;;;;;;3.83;2.20;;;16.10;48.40;;;;;;5012412;28;20191;-85
2021/05/15 08:47:35;;;;;;;2.80;2.47;;;16.10;49.40;;;;;;5020513;28;20255;-86
2021/05/15 08:50:07;;;;;;;4.40;2.83;;;15.70;46.80;;;;;;5036674;28;20241;-86
2021/05/15 08:52:36;;;;;;;2.43;2.13;;;15.60;46.40;;;;;;5023051;28;20185;-85
2021/05/15 08:55:04;;;;;;;3.37;2.47;;;15.60;47.40;;;;;;5020430;28;20218;-86
2021/05/15 08:57:30;;;;;;;3.03;2.40;;;15.80;46.20;;;;;;5021751;28;20205;-87
2021/05/15 08:59:55;;;;;;;4.00;2.60;;;15.90;45.80;;;;;;5016824;28;20223;-85
2021/05/15 09:02:21;;;;;;;2.83;2.63;;;15.80;45.90;;;;;;5019970;28;20198;-84
2021/05/15 09:04:46;;;;;;;2.70;2.50;;;15.80;46.90;;;;;;5038209;28;20218;-84
2021/05/15 09:07:12;;;;;;;3.40;2.60;;;15.80;48.60;;;;;;5023522;28;20215;-85
2021/05/15 09:09:38;;;;;;;2.93;2.60;;;15.80;48.30;;;;;;5017988;28;20647;-86
2021/05/15 09:12:04;;;;;;;5.87;3.30;;;16.00;48.90;;;;;;5028067;28;20179;-85
2021/05/15 09:14:30;;;;;;;4.17;2.90;;;16.10;47.30;;;;;;5020549;28;20187;-85
2021/05/15 09:16:57;;;;;;;4.37;3.40;;;15.60;48.60;;;;;;5021458;28;20833;-84
2021/05/15 09:19:29;;;;;;;2.40;2.20;;;16.00;48.50;;;;;;5022089;28;20639;-86
2021/05/15 09:21:59;;;;;;;2.27;2.07;;;16.10;48.00;;;;;;5016575;28;20253;-85
2021/05/15 09:24:30;;;;;;;3.80;2.40;;;16.30;47.50;;;;;;5023152;28;20255;-85
2021/05/15 09:26:57;;;;;;;3.10;2.47;;;;;;;;;;5023772;28;20185;-87
2021/05/15 09:29:22;;;;;;;3.03;2.40;;;16.30;46.40;;;;;;5020997;28;20219;-88
2021/05/15 09:31:48;;;;;;;2.40;2.20;;;16.40;46.20;;;;;;5023098;28;20183;-86
2021/05/15 09:34:15;;;;;;;2.30;2.10;;;;;;;;;;5020402;28;20223;-85
2021/05/15 09:36:44;;;;;;;2.93;2.63;;;16.20;47.30;;;;;;5021532;28;20241;-83
2021/05/15 09:39:21;;;;;;;3.10;2.70;;;16.10;48.30;;;;;;5024089;28;20313;-84
2021/05/15 09:41:52;;;;;;;3.10;2.30;;;15.90;48.30;;;;;;5040263;28;20183;-83
2021/05/15 09:44:26;;;;;;;3.83;2.43;;;15.90;48.80;;;;;;5019994;28;20255;-83
2021/05/15 09:46:54;;;;;;;4.60;2.83;;;15.90;49.40;;;;;;5019723;28;20198;-83
2021/05/15 09:49:28;;;;;;;2.60;2.40;;;15.90;49.50;;;;;;5023499;28;20199;-84
2021/05/15 09:51:55;;;;;;;3.70;2.10;;;16.40;49.50;;;;;;5036837;28;20187;-84
2021/05/15 09:54:45;;;;;;;2.67;2.27;;;16.90;49.40;;;;;;5024154;28;20690;-84
2021/05/15 09:57:18;;;;;;;3.93;2.47;;;17.10;46.30;;;;;;5016251;28;20233;-83
2021/05/15 09:59:46;;;;;;;2.40;2.07;;;17.00;46.20;;;;;;5025905;28;20208;-83
2021/05/15 10:02:17;;;;;;;2.20;2.00;;;16.70;48.20;;;;;;5016535;28;20179;-84
2021/05/15 10:04:47;;;;;;;2.47;2.10;;;16.50;49.70;;;;;;5022485;28;20189;-81
2021/05/15 10:07:18;;;;;;;2.13;1.93;;;15.60;51.40;;;;;;5043676;28;20207;-81
2021/05/15 10:09:44;;;;;;;2.07;1.87;;;;;;;;;;5024453;28;20222;-82
2021/05/15 10:12:11;;;;;;;2.57;1.80;;;;;;;;;;5026812;28;20210;-81
2021/05/15 10:14:37;;;;;;;3.17;2.40;;;;;;;;;;5031630;28;20222;-81
2021/05/15 10:17:03;;;;;;;1.63;1.53;;;15.30;54.00;;;;;;5025818;28;20229;-83
2021/05/15 10:19:29;;;;;;;1.63;1.53;;;15.10;54.90;;;;;;5023697;28;20175;-82
2021/05/15 10:21:55;;;;;;;1.10;1.00;;;14.80;56.80;;;;;;5024377;28;20396;-82
2021/05/15 10:24:30;;;;;;;1.03;0.93;;;14.80;58.10;;;;;;5019623;28;20199;-84
2021/05/15 10:27:07;;;;;;;1.10;1.00;;;14.20;59.00;;;;;;5007764;28;20655;-84
2021/05/15 10:29:40;;;;;;;0.90;0.90;;;14.10;60.20;;;;;;5021728;28;20206;-84
2021/05/15 10:32:15;;;;;;;1.43;1.33;;;14.10;63.70;;;;;;5022261;28;20259;-82
2021/05/15 10:34:45;;;;;;;1.00;1.00;;;14.30;65.00;;;;;;5016976;28;20198;-83
2021/05/15 10:37:15;;;;;;;3.67;1.37;;;14.40;64.90;;;;;;5035451;28;20573;-87
2021/05/15 10:39:42;;;;;;;1.53;1.43;;;;;;;;;;5022555;28;20192;-87
2021/05/15 10:42:07;;;;;;;2.20;1.40;;;14.80;63.30;;;;;;5023705;28;20288;-84
2021/05/15 10:44:41;;;;;;;1.80;1.60;;;15.10;64.00;;;;;;5018562;28;20223;-84
2021/05/15 10:47:07;;;;;;;2.00;1.80;;;15.10;61.70;;;;;;5019805;28;20214;-84
2021/05/15 10:49:33;;;;;;;1.27;1.13;;;15.20;61.60;;;;;;5019668;28;20258;-83
2021/05/15 10:52:08;;;;;;;1.73;1.60;;;;;;;;;;5019648;28;20248;-84
2021/05/15 10:54:38;;;;;;;1.20;1.10;;;15.80;61.10;;;;;;5014434;28;20190;-84
2021/05/15 10:57:05;;;;;;;2.47;1.60;;;;;;;;;;5025683;28;20210;-83
2021/05/15 10:59:31;;;;;;;1.63;0.97;;;16.20;60.00;;;;;;5013731;28;20192;-83
2021/05/15 11:01:58;;;;;;;1.90;1.00;;;16.20;58.80;;;;;;5016731;28;20226;-85
2021/05/15 11:04:31;;;;;;;1.93;1.10;;;16.00;59.80;;;;;;5021519;28;20183;-85
2021/05/15 11:07:00;;;;;;;2.07;1.03;;;;;;;;;;5022019;28;20192;-84
2021/05/15 11:09:27;;;;;;;1.67;1.40;;;15.80;59.10;;;;;;5023730;28;20207;-85
2021/05/15 11:12:03;;;;;;;3.63;1.37;;;15.60;59.40;;;;;;5022524;28;20267;-80
2021/05/15 11:14:34;;;;;;;1.70;1.60;;;15.50;60.00;;;;;;5039344;28;20196;-81
2021/05/15 11:17:11;;;;;;;5.53;1.53;;;;;;;;;;5023249;28;20668;-79
2021/05/15 11:19:47;;;;;;;1.23;0.93;;;15.80;59.60;;;;;;5022580;28;20195;-81
2021/05/15 11:22:14;;;;;;;3.27;1.27;;;20.20;63.70;;;;;;5022472;28;20230;-80
2021/05/15 11:24:58;;;;;;;1.17;1.00;;;16.90;55.50;;;;;;5022567;28;20257;-80
2021/05/15 11:27:24;;;;;;;2.47;0.93;;;16.70;53.80;;;;;;5023155;28;20220;-79
2021/05/15 11:30:22;;;;;;;1.10;0.90;;;17.10;54.20;;;;;;5023289;28;20205;-81
2021/05/15 11:33:06;;;;;;;1.00;0.67;;;17.60;53.60;;;;;;4988399;28;20212;-80
2021/05/15 11:35:38;;;;;;;0.60;0.60;;;17.90;52.80;;;;;;5014468;28;20216;-80
2021/05/15 11:38:15;;;;;;;1.13;0.90;;;18.20;51.60;;;;;;5018887;28;20639;-80
2021/05/15 11:40:47;;;;;;;2.10;0.70;;;18.80;47.90;;;;;;5023121;28;20247;-80
2021/05/15 11:43:26;;;;;;;1.60;0.67;;;19.30;46.20;;;;;;5014716;28;20311;-78
2021/05/15 11:45:52;;;;;;;0.77;0.60;;;19.30;46.10;;;;;;5037321;28;20199;-80
2021/05/15 11:48:23;;;;;;;1.13;1.07;;;19.40;46.20;;;;;;5026929;28;20192;-80
2021/05/15 11:51:03;;;;;;;0.90;0.70;;;19.50;45.30;;;;;;5032164;28;20200;-80
2021/05/15 11:53:31;;;;;;;2.00;0.80;;;18.60;46.50;;;;;;5020350;28;20191;-79
2021/05/15 11:55:57;;;;;;;3.40;1.37;;;17.80;48.30;;;;;;5014996;28;20187;-80
2021/05/15 11:58:24;;;;;;;3.37;1.77;;;17.50;50.70;;;;;;5016645;28;20233;-86
2021/05/15 12:00:50;;;;;;;3.50;2.00;;;17.30;51.00;;;;;;5019950;28;20183;-81
2021/05/15 12:03:24;;;;;;;1.77;1.27;;;17.70;51.30;;;;;;5021627;28;20194;-83
2021/05/15 12:05:50;;;;;;;1.97;0.90;;;18.10;49.90;;;;;;5038946;28;20200;-85
2021/05/15 12:08:17;;;;;;;1.20;1.10;;;18.90;47.40;;;;;;5020759;28;20191;-85
2021/05/15 12:10:44;;;;;;;1.87;1.33;;;19.80;45.60;;;;;;5018993;28;20248;-82
2021/05/15 12:13:13;;;;;;;4.53;1.60;;;20.10;43.20;;;;;;5014060;28;20700;-85
2021/05/15 12:15:40;;;;;;;3.23;1.47;;;19.90;43.60;;;;;;5020270;28;20641;-88
2021/05/15 12:18:11;;;;;;;4.73;1.50;;;19.10;44.90;;;;;;5015356;28;20193;-88
2021/05/15 12:20:49;;;;;;;2.40;1.10;;;18.70;45.60;;;;;;5020392;28;20192;-85
2021/05/15 12:23:20;;;;;;;2.80;1.83;;;17.80;52.70;;;;;;5030823;28;20192;-85
2021/05/15 12:26:07;;;;;;;3.30;1.73;;;17.40;52.30;;;;;;5017589;28;20204;-86
2021/05/15 12:28:41;;;;;;;2.10;1.40;;;17.50;53.20;;;;;;5010843;28;20282;-86
2021/05/15 12:31:26;;;;;;;1.37;1.27;;;18.00;53.40;;;;;;5030099;28;20205;-85
2021/05/15 12:33:52;;;;;;;3.20;1.00;;;19.50;48.90;;;;;;5013009;28;20547;-83
2021/05/15 12:36:19;;;;;;;1.27;1.00;;;21.60;39.40;;;;;;5016653;28;20192;-85
2021/05/15 12:38:52;;;;;;;1.90;1.10;;;21.60;40.00;;;;;;5015947;28;20676;-84
2021/05/15 12:41:33;;;;;;;1.93;1.37;;;22.80;38.40;;;;;;5012108;28;20194;-86
2021/05/15 12:44:08;;;;;;;0.82;0.82;;;23.30;38.10;;;;;;5019694;28;20215;-85
2021/05/15 12:46:42;;;;;;;1.33;1.17;;;24.00;36.00;;;;;;5017537;28;20589;-86
2021/05/15 12:49:10;;;;;;;1.83;1.60;;;22.80;34.70;;;;;;5032506;28;20287;-87
2021/05/15 12:51:45;;;;;;;3.33;1.67;;;22.70;34.10;;;;;;5013556;28;20183;-89
2021/05/15 12:54:16;;;;;;;2.03;1.83;;;21.80;35.60;;;;;;5012175;28;20233;-86
2021/05/15 12:56:49;;;;;;;2.23;1.33;;;21.60;34.50;;;;;;5024683;28;20199;-85
2021/05/15 12:59:15;;;;;;;1.90;1.30;;;21.00;34.20;;;;;;5033088;28;20201;-85
2021/05/15 13:01:41;;;;;;;1.27;1.17;;;20.00;34.50;;;;;;5018241;28;20232;-79
2021/05/15 13:04:07;;;;;;;2.23;1.80;;;19.00;35.60;;;;;;5018418;28;20196;-82
2021/05/15 13:06:37;;;;;;;2.50;1.57;;;18.10;38.30;;;;;;5024186;28;20584;-88
2021/05/15 13:09:04;;;;;;;1.00;0.90;;;18.10;39.80;;;;;;5017967;28;20309;-87
2021/05/15 13:11:31;;;;;;;1.97;1.37;;;18.30;39.20;;;;;;5022025;28;20243;-82